sensor_id;sensor_type;location;lat;lon;timestamp;P1;durP1;ratioP1;P2;durP2;ratioP2
60722;SDS011;46574;52.818;6.516;2022-09-23T00:00:45;16.35;;;14.88;;
60722;SDS011;46574;52.818;6.516;2022-09-23T00:03:12;17.13;;;15.73;;
60722;SDS011;46574;52.818;6.516;2022-09-23T00:05:39;17.67;;;16.30;;
60722;SDS011;46574;52.818;6.516;2022-09-23T00:08:08;18.20;;;16.75;;
60722;SDS011;46574;52.818;6.516;2022-09-23T00:10:36;18.08;;;16.48;;
60722;SDS011;46574;52.818;6.516;2022-09-23T00:13:04;18.30;;;16.83;;
60722;SDS011;46574;52.818;6.516;2022-09-23T00:15:30;22.70;;;20.90;;
60722;SDS011;46574;52.818;6.516;2022-09-23T00:17:57;18.23;;;16.73;;
60722;SDS011;46574;52.818;6.516;2022-09-23T00:20:23;17.00;;;15.60;;
60722;SDS011;46574;52.818;6.516;2022-09-23T00:22:49;19.73;;;18.08;;
60722;SDS011;46574;52.818;6.516;2022-09-23T00:25:15;18.58;;;16.98;;
60722;SDS011;46574;52.818;6.516;2022-09-23T00:27:41;20.95;;;19.25;;
60722;SDS011;46574;52.818;6.516;2022-09-23T00:30:07;19.30;;;17.70;;
60722;SDS011;46574;52.818;6.516;2022-09-23T00:32:35;17.23;;;15.93;;
60722;SDS011;46574;52.818;6.516;2022-09-23T00:35:02;17.00;;;15.57;;
60722;SDS011;46574;52.818;6.516;2022-09-23T00:37:28;15.55;;;14.25;;
60722;SDS011;46574;52.818;6.516;2022-09-23T00:39:55;18.77;;;17.27;;
60722;SDS011;46574;52.818;6.516;2022-09-23T00:42:21;19.00;;;17.55;;
60722;SDS011;46574;52.818;6.516;2022-09-23T00:44:50;19.30;;;17.70;;
60722;SDS011;46574;52.818;6.516;2022-09-23T00:47:18;21.02;;;19.13;;
60722;SDS011;46574;52.818;6.516;2022-09-23T00:52:48;15.40;;;14.10;;
60722;SDS011;46574;52.818;6.516;2022-09-23T00:55:18;20.60;;;18.77;;
60722;SDS011;46574;52.818;6.516;2022-09-23T00:57:51;17.00;;;15.63;;
60722;SDS011;46574;52.818;6.516;2022-09-23T01:00:20;17.65;;;16.15;;
60722;SDS011;46574;52.818;6.516;2022-09-23T01:02:47;16.42;;;15.02;;
60722;SDS011;46574;52.818;6.516;2022-09-23T01:05:13;16.10;;;14.98;;
60722;SDS011;46574;52.818;6.516;2022-09-23T01:07:40;20.17;;;18.27;;
60722;SDS011;46574;52.818;6.516;2022-09-23T01:10:06;21.63;;;19.75;;
60722;SDS011;46574;52.818;6.516;2022-09-23T01:26:47;23.70;;;21.52;;
60722;SDS011;46574;52.818;6.516;2022-09-23T01:37:54;22.75;;;20.65;;
60722;SDS011;46574;52.818;6.516;2022-09-23T01:43:38;21.75;;;19.90;;
60722;SDS011;46574;52.818;6.516;2022-09-23T01:47:07;21.02;;;19.25;;
60722;SDS011;46574;52.818;6.516;2022-09-23T01:49:19;19.45;;;17.85;;
60722;SDS011;46574;52.818;6.516;2022-09-23T01:55:06;18.50;;;16.80;;
60722;SDS011;46574;52.818;6.516;2022-09-23T01:57:43;20.92;;;19.25;;
60722;SDS011;46574;52.818;6.516;2022-09-23T02:00:14;20.08;;;18.35;;
60722;SDS011;46574;52.818;6.516;2022-09-23T02:02:49;19.53;;;18.00;;
60722;SDS011;46574;52.818;6.516;2022-09-23T02:05:21;20.20;;;18.53;;
60722;SDS011;46574;52.818;6.516;2022-09-23T02:08:15;21.95;;;20.20;;
60722;SDS011;46574;52.818;6.516;2022-09-23T02:10:49;19.50;;;17.90;;
60722;SDS011;46574;52.818;6.516;2022-09-23T02:13:55;21.45;;;19.65;;
60722;SDS011;46574;52.818;6.516;2022-09-23T02:18:55;21.95;;;19.98;;
60722;SDS011;46574;52.818;6.516;2022-09-23T02:21:26;22.73;;;20.60;;
60722;SDS011;46574;52.818;6.516;2022-09-23T02:24:19;23.33;;;21.33;;
60722;SDS011;46574;52.818;6.516;2022-09-23T02:32:19;22.98;;;20.90;;
60722;SDS011;46574;52.818;6.516;2022-09-23T02:35:14;22.75;;;20.73;;
60722;SDS011;46574;52.818;6.516;2022-09-23T02:38:00;20.10;;;18.30;;
60722;SDS011;46574;52.818;6.516;2022-09-23T02:40:51;22.70;;;20.65;;
60722;SDS011;46574;52.818;6.516;2022-09-23T02:43:31;22.65;;;20.55;;
60722;SDS011;46574;52.818;6.516;2022-09-23T02:46:03;22.33;;;20.33;;
60722;SDS011;46574;52.818;6.516;2022-09-23T02:48:32;22.33;;;20.33;;
60722;SDS011;46574;52.818;6.516;2022-09-23T02:51:10;22.10;;;20.17;;
60722;SDS011;46574;52.818;6.516;2022-09-23T02:53:37;20.77;;;19.05;;
60722;SDS011;46574;52.818;6.516;2022-09-23T02:56:13;23.10;;;21.00;;
60722;SDS011;46574;52.818;6.516;2022-09-23T02:58:40;22.20;;;20.35;;
60722;SDS011;46574;52.818;6.516;2022-09-23T03:01:07;23.15;;;21.02;;
60722;SDS011;46574;52.818;6.516;2022-09-23T03:04:11;18.95;;;17.40;;
60722;SDS011;46574;52.818;6.516;2022-09-23T03:06:46;22.52;;;20.58;;
60722;SDS011;46574;52.818;6.516;2022-09-23T03:09:19;22.58;;;20.58;;
60722;SDS011;46574;52.818;6.516;2022-09-23T03:11:52;23.02;;;21.02;;
60722;SDS011;46574;52.818;6.516;2022-09-23T03:17:24;22.08;;;20.20;;
60722;SDS011;46574;52.818;6.516;2022-09-23T03:20:06;22.33;;;20.45;;
60722;SDS011;46574;52.818;6.516;2022-09-23T03:22:37;23.38;;;21.33;;
60722;SDS011;46574;52.818;6.516;2022-09-23T03:25:07;20.92;;;19.10;;
60722;SDS011;46574;52.818;6.516;2022-09-23T03:27:37;21.50;;;19.60;;
60722;SDS011;46574;52.818;6.516;2022-09-23T03:30:06;21.73;;;19.83;;
60722;SDS011;46574;52.818;6.516;2022-09-23T03:32:33;20.55;;;18.65;;
60722;SDS011;46574;52.818;6.516;2022-09-23T03:35:04;22.80;;;20.90;;
60722;SDS011;46574;52.818;6.516;2022-09-23T03:40:12;22.40;;;20.60;;
60722;SDS011;46574;52.818;6.516;2022-09-23T03:42:57;20.02;;;18.15;;
60722;SDS011;46574;52.818;6.516;2022-09-23T03:45:26;21.40;;;19.60;;
60722;SDS011;46574;52.818;6.516;2022-09-23T03:47:55;21.27;;;19.48;;
60722;SDS011;46574;52.818;6.516;2022-09-23T03:50:21;22.73;;;20.83;;
60722;SDS011;46574;52.818;6.516;2022-09-23T03:52:47;21.17;;;19.40;;
60722;SDS011;46574;52.818;6.516;2022-09-23T03:55:14;20.20;;;18.50;;
60722;SDS011;46574;52.818;6.516;2022-09-23T03:57:41;18.60;;;17.20;;
60722;SDS011;46574;52.818;6.516;2022-09-23T04:00:08;20.67;;;18.80;;
60722;SDS011;46574;52.818;6.516;2022-09-23T04:02:34;21.92;;;20.02;;
60722;SDS011;46574;52.818;6.516;2022-09-23T04:05:00;20.90;;;19.20;;
60722;SDS011;46574;52.818;6.516;2022-09-23T04:07:26;20.38;;;18.50;;
60722;SDS011;46574;52.818;6.516;2022-09-23T04:09:51;18.73;;;17.13;;
60722;SDS011;46574;52.818;6.516;2022-09-23T04:12:17;20.80;;;18.88;;
60722;SDS011;46574;52.818;6.516;2022-09-23T04:14:43;19.95;;;18.25;;
60722;SDS011;46574;52.818;6.516;2022-09-23T04:17:10;19.20;;;17.50;;
60722;SDS011;46574;52.818;6.516;2022-09-23T04:19:36;19.35;;;17.75;;
60722;SDS011;46574;52.818;6.516;2022-09-23T04:22:02;20.85;;;19.05;;
60722;SDS011;46574;52.818;6.516;2022-09-23T04:24:28;18.92;;;17.27;;
60722;SDS011;46574;52.818;6.516;2022-09-23T04:26:55;19.42;;;17.83;;
60722;SDS011;46574;52.818;6.516;2022-09-23T04:29:21;18.17;;;16.58;;
60722;SDS011;46574;52.818;6.516;2022-09-23T04:31:48;19.60;;;17.80;;
60722;SDS011;46574;52.818;6.516;2022-09-23T04:34:14;17.17;;;15.65;;
60722;SDS011;46574;52.818;6.516;2022-09-23T04:36:42;20.65;;;18.80;;
60722;SDS011;46574;52.818;6.516;2022-09-23T04:39:11;20.45;;;18.65;;
60722;SDS011;46574;52.818;6.516;2022-09-23T04:41:37;18.17;;;16.48;;
60722;SDS011;46574;52.818;6.516;2022-09-23T04:44:03;20.58;;;18.85;;
60722;SDS011;46574;52.818;6.516;2022-09-23T04:46:29;20.95;;;19.13;;
60722;SDS011;46574;52.818;6.516;2022-09-23T04:48:55;19.08;;;17.25;;
60722;SDS011;46574;52.818;6.516;2022-09-23T04:51:22;19.20;;;17.55;;
60722;SDS011;46574;52.818;6.516;2022-09-23T04:53:49;20.38;;;18.58;;
60722;SDS011;46574;52.818;6.516;2022-09-23T04:56:23;17.30;;;15.70;;
60722;SDS011;46574;52.818;6.516;2022-09-23T04:58:50;19.15;;;17.52;;
60722;SDS011;46574;52.818;6.516;2022-09-23T05:01:18;19.77;;;18.08;;
60722;SDS011;46574;52.818;6.516;2022-09-23T05:03:49;19.30;;;17.67;;
60722;SDS011;46574;52.818;6.516;2022-09-23T05:06:17;18.20;;;16.60;;
60722;SDS011;46574;52.818;6.516;2022-09-23T05:08:47;17.17;;;15.65;;
60722;SDS011;46574;52.818;6.516;2022-09-23T05:11:14;20.17;;;18.48;;
60722;SDS011;46574;52.818;6.516;2022-09-23T05:13:40;16.50;;;14.90;;
60722;SDS011;46574;52.818;6.516;2022-09-23T05:16:06;20.38;;;18.65;;
60722;SDS011;46574;52.818;6.516;2022-09-23T05:18:36;17.85;;;16.25;;
60722;SDS011;46574;52.818;6.516;2022-09-23T05:21:05;19.15;;;17.55;;
60722;SDS011;46574;52.818;6.516;2022-09-23T05:23:31;20.40;;;18.70;;
60722;SDS011;46574;52.818;6.516;2022-09-23T05:26:01;17.92;;;16.25;;
60722;SDS011;46574;52.818;6.516;2022-09-23T05:28:29;20.20;;;18.27;;
60722;SDS011;46574;52.818;6.516;2022-09-23T05:31:00;17.27;;;15.73;;
60722;SDS011;46574;52.818;6.516;2022-09-23T05:33:31;20.52;;;18.63;;
60722;SDS011;46574;52.818;6.516;2022-09-23T05:36:01;19.77;;;18.10;;
60722;SDS011;46574;52.818;6.516;2022-09-23T05:38:28;19.50;;;17.90;;
60722;SDS011;46574;52.818;6.516;2022-09-23T05:40:57;19.00;;;17.17;;
60722;SDS011;46574;52.818;6.516;2022-09-23T05:43:24;19.98;;;17.90;;
60722;SDS011;46574;52.818;6.516;2022-09-23T05:45:51;20.48;;;18.75;;
60722;SDS011;46574;52.818;6.516;2022-09-23T05:48:25;16.60;;;15.18;;
60722;SDS011;46574;52.818;6.516;2022-09-23T05:50:51;19.30;;;17.67;;
60722;SDS011;46574;52.818;6.516;2022-09-23T05:53:17;20.60;;;18.80;;
60722;SDS011;46574;52.818;6.516;2022-09-23T05:55:43;19.60;;;17.80;;
60722;SDS011;46574;52.818;6.516;2022-09-23T05:58:13;19.52;;;17.88;;
60722;SDS011;46574;52.818;6.516;2022-09-23T06:00:39;19.25;;;17.50;;
60722;SDS011;46574;52.818;6.516;2022-09-23T06:03:12;17.63;;;16.05;;
60722;SDS011;46574;52.818;6.516;2022-09-23T06:05:42;19.35;;;17.45;;
60722;SDS011;46574;52.818;6.516;2022-09-23T06:08:09;17.35;;;15.80;;
60722;SDS011;46574;52.818;6.516;2022-09-23T06:10:39;15.82;;;14.43;;
60722;SDS011;46574;52.818;6.516;2022-09-23T06:13:06;19.25;;;17.42;;
60722;SDS011;46574;52.818;6.516;2022-09-23T06:15:33;18.55;;;16.83;;
60722;SDS011;46574;52.818;6.516;2022-09-23T06:17:59;18.95;;;17.15;;
60722;SDS011;46574;52.818;6.516;2022-09-23T06:20:26;19.23;;;17.52;;
60722;SDS011;46574;52.818;6.516;2022-09-23T06:22:52;18.88;;;17.27;;
60722;SDS011;46574;52.818;6.516;2022-09-23T06:25:18;18.08;;;16.27;;
60722;SDS011;46574;52.818;6.516;2022-09-23T06:27:52;16.75;;;15.35;;
60722;SDS011;46574;52.818;6.516;2022-09-23T06:30:19;20.02;;;18.00;;
60722;SDS011;46574;52.818;6.516;2022-09-23T06:32:52;20.02;;;18.13;;
60722;SDS011;46574;52.818;6.516;2022-09-23T06:35:20;19.75;;;17.83;;
60722;SDS011;46574;52.818;6.516;2022-09-23T06:37:47;17.42;;;15.88;;
60722;SDS011;46574;52.818;6.516;2022-09-23T06:40:14;17.48;;;15.98;;
60722;SDS011;46574;52.818;6.516;2022-09-23T06:42:40;16.33;;;14.82;;
60722;SDS011;46574;52.818;6.516;2022-09-23T06:45:06;17.33;;;15.75;;
60722;SDS011;46574;52.818;6.516;2022-09-23T06:47:35;15.07;;;13.68;;
60722;SDS011;46574;52.818;6.516;2022-09-23T06:50:01;15.20;;;13.90;;
60722;SDS011;46574;52.818;6.516;2022-09-23T06:52:28;18.02;;;16.45;;
60722;SDS011;46574;52.818;6.516;2022-09-23T06:54:53;17.58;;;16.08;;
60722;SDS011;46574;52.818;6.516;2022-09-23T06:57:19;19.10;;;17.40;;
60722;SDS011;46574;52.818;6.516;2022-09-23T06:59:45;15.32;;;14.02;;
60722;SDS011;46574;52.818;6.516;2022-09-23T07:02:11;19.38;;;17.55;;
60722;SDS011;46574;52.818;6.516;2022-09-23T07:04:37;17.33;;;15.75;;
60722;SDS011;46574;52.818;6.516;2022-09-23T07:07:02;17.45;;;15.88;;
60722;SDS011;46574;52.818;6.516;2022-09-23T07:09:28;15.02;;;13.63;;
60722;SDS011;46574;52.818;6.516;2022-09-23T07:11:54;14.52;;;13.32;;
60722;SDS011;46574;52.818;6.516;2022-09-23T07:14:19;16.52;;;15.13;;
60722;SDS011;46574;52.818;6.516;2022-09-23T07:16:48;15.85;;;14.35;;
60722;SDS011;46574;52.818;6.516;2022-09-23T07:19:14;18.23;;;16.52;;
60722;SDS011;46574;52.818;6.516;2022-09-23T07:21:40;17.70;;;16.00;;
60722;SDS011;46574;52.818;6.516;2022-09-23T07:24:06;15.10;;;13.60;;
60722;SDS011;46574;52.818;6.516;2022-09-23T07:26:32;13.90;;;12.60;;
60722;SDS011;46574;52.818;6.516;2022-09-23T07:28:58;17.20;;;15.60;;
60722;SDS011;46574;52.818;6.516;2022-09-23T07:31:32;16.92;;;15.35;;
60722;SDS011;46574;52.818;6.516;2022-09-23T07:33:59;15.27;;;13.77;;
60722;SDS011;46574;52.818;6.516;2022-09-23T07:36:25;16.30;;;14.77;;
60722;SDS011;46574;52.818;6.516;2022-09-23T07:38:52;13.98;;;12.75;;
60722;SDS011;46574;52.818;6.516;2022-09-23T07:41:27;16.25;;;14.70;;
60722;SDS011;46574;52.818;6.516;2022-09-23T07:43:55;16.23;;;14.63;;
60722;SDS011;46574;52.818;6.516;2022-09-23T07:46:23;16.77;;;15.18;;
60722;SDS011;46574;52.818;6.516;2022-09-23T07:48:51;16.63;;;14.93;;
60722;SDS011;46574;52.818;6.516;2022-09-23T07:51:18;16.38;;;14.77;;
60722;SDS011;46574;52.818;6.516;2022-09-23T07:53:46;15.20;;;13.52;;
60722;SDS011;46574;52.818;6.516;2022-09-23T07:56:13;17.00;;;15.30;;
60722;SDS011;46574;52.818;6.516;2022-09-23T07:58:39;14.35;;;12.95;;
60722;SDS011;46574;52.818;6.516;2022-09-23T08:01:07;14.05;;;12.75;;
60722;SDS011;46574;52.818;6.516;2022-09-23T08:06:04;11.02;;;10.00;;
60722;SDS011;46574;52.818;6.516;2022-09-23T08:08:33;14.07;;;12.73;;
60722;SDS011;46574;52.818;6.516;2022-09-23T08:11:03;16.63;;;14.93;;
60722;SDS011;46574;52.818;6.516;2022-09-23T08:13:30;14.68;;;13.40;;
60722;SDS011;46574;52.818;6.516;2022-09-23T08:15:56;13.70;;;12.35;;
60722;SDS011;46574;52.818;6.516;2022-09-23T08:18:22;13.15;;;11.90;;
60722;SDS011;46574;52.818;6.516;2022-09-23T08:20:48;13.23;;;12.05;;
60722;SDS011;46574;52.818;6.516;2022-09-23T08:23:14;15.55;;;14.05;;
60722;SDS011;46574;52.818;6.516;2022-09-23T08:25:41;14.38;;;12.98;;
60722;SDS011;46574;52.818;6.516;2022-09-23T08:28:11;14.35;;;13.05;;
60722;SDS011;46574;52.818;6.516;2022-09-23T08:30:44;12.27;;;11.00;;
60722;SDS011;46574;52.818;6.516;2022-09-23T08:33:12;15.00;;;13.60;;
60722;SDS011;46574;52.818;6.516;2022-09-23T08:35:39;16.17;;;14.70;;
60722;SDS011;46574;52.818;6.516;2022-09-23T08:38:05;13.82;;;12.52;;
60722;SDS011;46574;52.818;6.516;2022-09-23T08:40:42;14.88;;;13.57;;
60722;SDS011;46574;52.818;6.516;2022-09-23T08:43:18;14.65;;;13.25;;
60722;SDS011;46574;52.818;6.516;2022-09-23T08:45:49;16.27;;;14.77;;
60722;SDS011;46574;52.818;6.516;2022-09-23T08:48:19;13.40;;;12.05;;
60722;SDS011;46574;52.818;6.516;2022-09-23T08:51:03;14.60;;;13.30;;
60722;SDS011;46574;52.818;6.516;2022-09-23T08:53:32;13.63;;;12.43;;
60722;SDS011;46574;52.818;6.516;2022-09-23T08:56:15;15.75;;;14.10;;
60722;SDS011;46574;52.818;6.516;2022-09-23T08:58:54;14.63;;;13.35;;
60722;SDS011;46574;52.818;6.516;2022-09-23T09:01:43;13.30;;;11.93;;
60722;SDS011;46574;52.818;6.516;2022-09-23T09:04:22;12.30;;;11.13;;
60722;SDS011;46574;52.818;6.516;2022-09-23T09:27:56;12.38;;;11.20;;
60722;SDS011;46574;52.818;6.516;2022-09-23T09:30:23;13.63;;;12.38;;
60722;SDS011;46574;52.818;6.516;2022-09-23T09:35:24;12.13;;;10.93;;
60722;SDS011;46574;52.818;6.516;2022-09-23T09:37:57;14.30;;;12.77;;
60722;SDS011;46574;52.818;6.516;2022-09-23T09:40:23;13.68;;;12.45;;
60722;SDS011;46574;52.818;6.516;2022-09-23T09:42:49;14.27;;;13.02;;
60722;SDS011;46574;52.818;6.516;2022-09-23T09:45:29;13.40;;;11.63;;
60722;SDS011;46574;52.818;6.516;2022-09-23T09:48:12;13.52;;;12.18;;
60722;SDS011;46574;52.818;6.516;2022-09-23T09:55:52;14.85;;;13.45;;
60722;SDS011;46574;52.818;6.516;2022-09-23T09:58:22;12.50;;;11.23;;
60722;SDS011;46574;52.818;6.516;2022-09-23T10:00:51;13.38;;;12.00;;
60722;SDS011;46574;52.818;6.516;2022-09-23T10:03:22;11.10;;;9.93;;
60722;SDS011;46574;52.818;6.516;2022-09-23T10:06:12;11.40;;;10.48;;
60722;SDS011;46574;52.818;6.516;2022-09-23T10:08:40;11.80;;;10.68;;
60722;SDS011;46574;52.818;6.516;2022-09-23T10:11:38;12.80;;;11.60;;
60722;SDS011;46574;52.818;6.516;2022-09-23T10:14:14;10.07;;;9.18;;
60722;SDS011;46574;52.818;6.516;2022-09-23T10:16:45;9.02;;;8.23;;
60722;SDS011;46574;52.818;6.516;2022-09-23T10:19:26;10.90;;;9.88;;
60722;SDS011;46574;52.818;6.516;2022-09-23T10:21:54;11.77;;;10.68;;
60722;SDS011;46574;52.818;6.516;2022-09-23T10:24:24;8.82;;;7.93;;
60722;SDS011;46574;52.818;6.516;2022-09-23T10:27:04;8.68;;;7.88;;
60722;SDS011;46574;52.818;6.516;2022-09-23T10:32:16;11.85;;;10.85;;
60722;SDS011;46574;52.818;6.516;2022-09-23T10:34:46;14.82;;;11.52;;
60722;SDS011;46574;52.818;6.516;2022-09-23T10:37:58;12.80;;;11.60;;
60722;SDS011;46574;52.818;6.516;2022-09-23T10:40:38;12.15;;;11.10;;
60722;SDS011;46574;52.818;6.516;2022-09-23T10:52:17;10.05;;;9.15;;
60722;SDS011;46574;52.818;6.516;2022-09-23T10:55:04;11.48;;;10.38;;
60722;SDS011;46574;52.818;6.516;2022-09-23T11:03:11;11.48;;;10.48;;
60722;SDS011;46574;52.818;6.516;2022-09-23T11:12:16;11.13;;;10.13;;
60722;SDS011;46574;52.818;6.516;2022-09-23T11:17:37;12.60;;;11.38;;
60722;SDS011;46574;52.818;6.516;2022-09-23T11:23:12;13.35;;;11.95;;
60722;SDS011;46574;52.818;6.516;2022-09-23T11:25:53;11.32;;;10.32;;
60722;SDS011;46574;52.818;6.516;2022-09-23T11:28:38;12.60;;;11.43;;
60722;SDS011;46574;52.818;6.516;2022-09-23T11:31:21;13.25;;;12.05;;
60722;SDS011;46574;52.818;6.516;2022-09-23T11:34:09;9.43;;;8.63;;
60722;SDS011;46574;52.818;6.516;2022-09-23T11:36:56;10.27;;;9.13;;
60722;SDS011;46574;52.818;6.516;2022-09-23T11:39:55;13.75;;;11.77;;
60722;SDS011;46574;52.818;6.516;2022-09-23T11:42:28;14.00;;;12.85;;
60722;SDS011;46574;52.818;6.516;2022-09-23T11:45:23;14.00;;;12.57;;
60722;SDS011;46574;52.818;6.516;2022-09-23T11:48:15;12.93;;;11.80;;
60722;SDS011;46574;52.818;6.516;2022-09-23T11:50:45;10.10;;;9.20;;
60722;SDS011;46574;52.818;6.516;2022-09-23T11:53:21;11.82;;;10.25;;
60722;SDS011;46574;52.818;6.516;2022-09-23T12:01:25;10.98;;;9.95;;
60722;SDS011;46574;52.818;6.516;2022-09-23T12:04:03;11.25;;;10.07;;
60722;SDS011;46574;52.818;6.516;2022-09-23T12:06:35;11.02;;;10.00;;
60722;SDS011;46574;52.818;6.516;2022-09-23T12:09:14;12.48;;;11.38;;
60722;SDS011;46574;52.818;6.516;2022-09-23T12:14:56;11.37;;;10.07;;
60722;SDS011;46574;52.818;6.516;2022-09-23T12:17:51;10.43;;;9.35;;
60722;SDS011;46574;52.818;6.516;2022-09-23T12:23:16;9.43;;;8.52;;
60722;SDS011;46574;52.818;6.516;2022-09-23T12:28:17;11.88;;;10.77;;
60722;SDS011;46574;52.818;6.516;2022-09-23T12:30:44;11.23;;;10.07;;
60722;SDS011;46574;52.818;6.516;2022-09-23T12:35:45;10.73;;;9.63;;
60722;SDS011;46574;52.818;6.516;2022-09-23T12:38:33;9.32;;;8.50;;
60722;SDS011;46574;52.818;6.516;2022-09-23T12:41:00;9.02;;;8.23;;
60722;SDS011;46574;52.818;6.516;2022-09-23T12:43:49;11.35;;;10.18;;
60722;SDS011;46574;52.818;6.516;2022-09-23T12:46:23;8.67;;;7.77;;
60722;SDS011;46574;52.818;6.516;2022-09-23T12:51:27;9.15;;;8.02;;
60722;SDS011;46574;52.818;6.516;2022-09-23T12:53:55;9.48;;;8.25;;
60722;SDS011;46574;52.818;6.516;2022-09-23T13:01:40;9.60;;;8.68;;
60722;SDS011;46574;52.818;6.516;2022-09-23T13:04:15;10.18;;;9.27;;
60722;SDS011;46574;52.818;6.516;2022-09-23T13:07:30;12.07;;;10.95;;
60722;SDS011;46574;52.818;6.516;2022-09-23T13:12:48;11.18;;;10.18;;
60722;SDS011;46574;52.818;6.516;2022-09-23T13:15:31;11.27;;;10.13;;
60722;SDS011;46574;52.818;6.516;2022-09-23T13:20:44;12.07;;;10.98;;
60722;SDS011;46574;52.818;6.516;2022-09-23T13:23:25;11.83;;;10.63;;
60722;SDS011;46574;52.818;6.516;2022-09-23T13:25:53;13.52;;;12.32;;
60722;SDS011;46574;52.818;6.516;2022-09-23T13:28:26;11.65;;;10.65;;
60722;SDS011;46574;52.818;6.516;2022-09-23T13:30:57;11.98;;;10.88;;
60722;SDS011;46574;52.818;6.516;2022-09-23T13:33:31;15.00;;;13.57;;
60722;SDS011;46574;52.818;6.516;2022-09-23T13:36:18;12.85;;;11.48;;
60722;SDS011;46574;52.818;6.516;2022-09-23T13:38:45;11.57;;;10.43;;
60722;SDS011;46574;52.818;6.516;2022-09-23T13:43:53;9.30;;;8.40;;
60722;SDS011;46574;52.818;6.516;2022-09-23T13:46:30;10.63;;;9.52;;
60722;SDS011;46574;52.818;6.516;2022-09-23T13:49:02;8.48;;;7.63;;
60722;SDS011;46574;52.818;6.516;2022-09-23T13:51:34;9.30;;;8.40;;
60722;SDS011;46574;52.818;6.516;2022-09-23T13:54:01;9.60;;;8.60;;
60722;SDS011;46574;52.818;6.516;2022-09-23T13:56:31;8.30;;;7.60;;
60722;SDS011;46574;52.818;6.516;2022-09-23T14:04:38;7.28;;;6.57;;
60722;SDS011;46574;52.818;6.516;2022-09-23T14:07:05;7.90;;;6.90;;
60722;SDS011;46574;52.818;6.516;2022-09-23T14:09:32;9.10;;;8.20;;
60722;SDS011;46574;52.818;6.516;2022-09-23T14:11:59;11.32;;;8.55;;
60722;SDS011;46574;52.818;6.516;2022-09-23T14:14:28;10.02;;;9.10;;
60722;SDS011;46574;52.818;6.516;2022-09-23T14:16:54;7.82;;;7.18;;
60722;SDS011;46574;52.818;6.516;2022-09-23T14:19:22;7.97;;;7.10;;
60722;SDS011;46574;52.818;6.516;2022-09-23T14:21:50;9.38;;;8.48;;
60722;SDS011;46574;52.818;6.516;2022-09-23T14:24:18;9.27;;;8.48;;
60722;SDS011;46574;52.818;6.516;2022-09-23T14:27:07;10.57;;;9.45;;
60722;SDS011;46574;52.818;6.516;2022-09-23T14:29:39;12.48;;;8.40;;
60722;SDS011;46574;52.818;6.516;2022-09-23T14:32:11;8.50;;;7.45;;
60722;SDS011;46574;52.818;6.516;2022-09-23T14:40:25;9.82;;;8.30;;
60722;SDS011;46574;52.818;6.516;2022-09-23T14:43:03;8.45;;;7.38;;
60722;SDS011;46574;52.818;6.516;2022-09-23T14:45:45;8.00;;;7.20;;
60722;SDS011;46574;52.818;6.516;2022-09-23T14:48:24;8.25;;;7.45;;
60722;SDS011;46574;52.818;6.516;2022-09-23T14:50:56;7.13;;;6.43;;
60722;SDS011;46574;52.818;6.516;2022-09-23T14:53:31;6.90;;;6.30;;
60722;SDS011;46574;52.818;6.516;2022-09-23T14:58:38;7.03;;;6.32;;
60722;SDS011;46574;52.818;6.516;2022-09-23T15:01:31;6.82;;;5.53;;
60722;SDS011;46574;52.818;6.516;2022-09-23T15:04:14;7.80;;;6.25;;
60722;SDS011;46574;52.818;6.516;2022-09-23T15:09:19;9.13;;;8.32;;
60722;SDS011;46574;52.818;6.516;2022-09-23T15:11:49;9.38;;;8.05;;
60722;SDS011;46574;52.818;6.516;2022-09-23T15:14:25;8.35;;;7.63;;
60722;SDS011;46574;52.818;6.516;2022-09-23T15:16:53;8.07;;;7.28;;
60722;SDS011;46574;52.818;6.516;2022-09-23T15:19:19;8.98;;;8.02;;
60722;SDS011;46574;52.818;6.516;2022-09-23T15:21:46;8.68;;;7.88;;
60722;SDS011;46574;52.818;6.516;2022-09-23T15:24:36;8.50;;;7.70;;
60722;SDS011;46574;52.818;6.516;2022-09-23T15:27:21;7.63;;;6.10;;
60722;SDS011;46574;52.818;6.516;2022-09-23T15:30:00;9.27;;;8.23;;
60722;SDS011;46574;52.818;6.516;2022-09-23T15:32:34;8.93;;;8.02;;
60722;SDS011;46574;52.818;6.516;2022-09-23T15:35:02;10.95;;;9.82;;
60722;SDS011;46574;52.818;6.516;2022-09-23T15:37:29;9.10;;;8.23;;
60722;SDS011;46574;52.818;6.516;2022-09-23T15:39:56;9.25;;;8.32;;
60722;SDS011;46574;52.818;6.516;2022-09-23T15:42:21;11.23;;;10.15;;
60722;SDS011;46574;52.818;6.516;2022-09-23T15:44:47;9.65;;;8.32;;
60722;SDS011;46574;52.818;6.516;2022-09-23T15:47:14;9.65;;;8.65;;
60722;SDS011;46574;52.818;6.516;2022-09-23T15:49:45;12.93;;;11.73;;
60722;SDS011;46574;52.818;6.516;2022-09-23T15:52:11;11.93;;;10.75;;
60722;SDS011;46574;52.818;6.516;2022-09-23T15:57:08;8.07;;;7.22;;
60722;SDS011;46574;52.818;6.516;2022-09-23T15:59:33;9.70;;;8.80;;
60722;SDS011;46574;52.818;6.516;2022-09-23T16:02:02;8.95;;;8.07;;
60722;SDS011;46574;52.818;6.516;2022-09-23T16:04:31;9.18;;;8.27;;
60722;SDS011;46574;52.818;6.516;2022-09-23T16:06:57;9.95;;;8.57;;
60722;SDS011;46574;52.818;6.516;2022-09-23T16:09:23;9.13;;;8.23;;
60722;SDS011;46574;52.818;6.516;2022-09-23T16:11:48;8.27;;;7.47;;
60722;SDS011;46574;52.818;6.516;2022-09-23T16:14:16;9.88;;;8.98;;
60722;SDS011;46574;52.818;6.516;2022-09-23T16:16:43;10.38;;;9.38;;
60722;SDS011;46574;52.818;6.516;2022-09-23T16:19:11;8.13;;;7.32;;
60722;SDS011;46574;52.818;6.516;2022-09-23T16:21:38;8.48;;;7.63;;
60722;SDS011;46574;52.818;6.516;2022-09-23T16:24:15;9.80;;;7.80;;
60722;SDS011;46574;52.818;6.516;2022-09-23T16:26:42;9.55;;;7.40;;
60722;SDS011;46574;52.818;6.516;2022-09-23T16:29:09;12.68;;;8.93;;
60722;SDS011;46574;52.818;6.516;2022-09-23T16:31:35;16.23;;;10.18;;
60722;SDS011;46574;52.818;6.516;2022-09-23T16:34:02;12.85;;;8.52;;
60722;SDS011;46574;52.818;6.516;2022-09-23T16:36:33;10.23;;;9.13;;
60722;SDS011;46574;52.818;6.516;2022-09-23T16:39:02;9.70;;;8.90;;
60722;SDS011;46574;52.818;6.516;2022-09-23T16:41:30;8.52;;;7.63;;
60722;SDS011;46574;52.818;6.516;2022-09-23T16:43:56;8.57;;;7.78;;
60722;SDS011;46574;52.818;6.516;2022-09-23T16:46:24;8.30;;;7.55;;
60722;SDS011;46574;52.818;6.516;2022-09-23T16:48:51;9.32;;;8.25;;
60722;SDS011;46574;52.818;6.516;2022-09-23T16:51:21;13.38;;;12.07;;
60722;SDS011;46574;52.818;6.516;2022-09-23T16:53:50;8.43;;;7.43;;
60722;SDS011;46574;52.818;6.516;2022-09-23T16:56:18;11.27;;;10.18;;
60722;SDS011;46574;52.818;6.516;2022-09-23T16:58:46;11.80;;;10.60;;
60722;SDS011;46574;52.818;6.516;2022-09-23T17:01:14;10.95;;;9.98;;
60722;SDS011;46574;52.818;6.516;2022-09-23T17:04:01;11.40;;;10.30;;
60722;SDS011;46574;52.818;6.516;2022-09-23T17:06:27;11.25;;;10.27;;
60722;SDS011;46574;52.818;6.516;2022-09-23T17:08:53;11.20;;;10.05;;
60722;SDS011;46574;52.818;6.516;2022-09-23T17:11:19;9.07;;;8.27;;
60722;SDS011;46574;52.818;6.516;2022-09-23T17:13:46;11.25;;;10.10;;
60722;SDS011;46574;52.818;6.516;2022-09-23T17:16:26;11.05;;;10.02;;
60722;SDS011;46574;52.818;6.516;2022-09-23T17:18:53;9.98;;;9.02;;
60722;SDS011;46574;52.818;6.516;2022-09-23T17:21:19;12.88;;;11.55;;
60722;SDS011;46574;52.818;6.516;2022-09-23T17:23:50;10.63;;;9.63;;
60722;SDS011;46574;52.818;6.516;2022-09-23T17:26:17;10.32;;;9.32;;
60722;SDS011;46574;52.818;6.516;2022-09-23T17:28:44;11.73;;;10.63;;
60722;SDS011;46574;52.818;6.516;2022-09-23T17:31:09;9.57;;;7.88;;